sensor_id;sensor_type;location;lat;lon;timestamp;P1;durP1;ratioP1;P2;durP2;ratioP2
60730;SDS011;46580;52.114;11.674;2024-03-08T00:00:18;14.93;;;7.83;;
60730;SDS011;46580;52.114;11.674;2024-03-08T00:02:44;15.00;;;8.20;;
60730;SDS011;46580;52.114;11.674;2024-03-08T00:05:11;16.57;;;9.10;;
60730;SDS011;46580;52.114;11.674;2024-03-08T00:07:38;15.53;;;8.10;;
60730;SDS011;46580;52.114;11.674;2024-03-08T00:10:05;19.90;;;8.50;;
60730;SDS011;46580;52.114;11.674;2024-03-08T00:12:36;15.43;;;8.33;;
60730;SDS011;46580;52.114;11.674;2024-03-08T00:15:12;15.70;;;8.27;;
60730;SDS011;46580;52.114;11.674;2024-03-08T00:17:41;17.97;;;7.80;;
60730;SDS011;46580;52.114;11.674;2024-03-08T00:20:07;15.20;;;7.33;;
60730;SDS011;46580;52.114;11.674;2024-03-08T00:22:34;15.57;;;8.07;;
60730;SDS011;46580;52.114;11.674;2024-03-08T00:25:01;18.23;;;8.20;;
60730;SDS011;46580;52.114;11.674;2024-03-08T00:27:27;19.83;;;8.23;;
60730;SDS011;46580;52.114;11.674;2024-03-08T00:29:53;22.70;;;8.67;;
60730;SDS011;46580;52.114;11.674;2024-03-08T00:32:19;18.40;;;9.23;;
60730;SDS011;46580;52.114;11.674;2024-03-08T00:34:44;18.20;;;8.43;;
60730;SDS011;46580;52.114;11.674;2024-03-08T00:37:09;20.37;;;8.97;;
60730;SDS011;46580;52.114;11.674;2024-03-08T00:39:35;15.20;;;7.27;;
60730;SDS011;46580;52.114;11.674;2024-03-08T00:42:02;18.83;;;8.50;;
60730;SDS011;46580;52.114;11.674;2024-03-08T00:44:28;19.97;;;9.03;;
60730;SDS011;46580;52.114;11.674;2024-03-08T00:46:53;19.87;;;9.00;;
60730;SDS011;46580;52.114;11.674;2024-03-08T00:49:19;18.37;;;8.47;;
60730;SDS011;46580;52.114;11.674;2024-03-08T00:51:44;22.90;;;8.57;;
60730;SDS011;46580;52.114;11.674;2024-03-08T00:54:10;18.47;;;8.80;;
60730;SDS011;46580;52.114;11.674;2024-03-08T00:56:35;18.03;;;8.53;;
60730;SDS011;46580;52.114;11.674;2024-03-08T00:59:01;14.70;;;7.70;;
60730;SDS011;46580;52.114;11.674;2024-03-08T01:01:27;17.57;;;8.53;;
60730;SDS011;46580;52.114;11.674;2024-03-08T01:03:53;13.80;;;7.97;;
60730;SDS011;46580;52.114;11.674;2024-03-08T01:06:18;17.33;;;8.63;;
60730;SDS011;46580;52.114;11.674;2024-03-08T01:08:44;15.13;;;8.10;;
60730;SDS011;46580;52.114;11.674;2024-03-08T01:11:10;22.30;;;9.43;;
60730;SDS011;46580;52.114;11.674;2024-03-08T01:13:36;19.63;;;9.40;;
60730;SDS011;46580;52.114;11.674;2024-03-08T01:16:01;17.13;;;8.13;;
60730;SDS011;46580;52.114;11.674;2024-03-08T01:18:28;13.90;;;7.37;;
60730;SDS011;46580;52.114;11.674;2024-03-08T01:20:54;19.87;;;9.37;;
60730;SDS011;46580;52.114;11.674;2024-03-08T01:23:19;19.60;;;9.43;;
60730;SDS011;46580;52.114;11.674;2024-03-08T01:25:44;15.13;;;7.40;;
60730;SDS011;46580;52.114;11.674;2024-03-08T01:28:10;18.03;;;9.00;;
60730;SDS011;46580;52.114;11.674;2024-03-08T01:30:37;16.57;;;9.10;;
60730;SDS011;46580;52.114;11.674;2024-03-08T01:33:03;16.90;;;8.73;;
60730;SDS011;46580;52.114;11.674;2024-03-08T01:35:29;17.43;;;8.70;;
60730;SDS011;46580;52.114;11.674;2024-03-08T01:37:54;14.87;;;8.47;;
60730;SDS011;46580;52.114;11.674;2024-03-08T01:40:20;17.40;;;8.57;;
60730;SDS011;46580;52.114;11.674;2024-03-08T01:42:47;23.70;;;8.83;;
60730;SDS011;46580;52.114;11.674;2024-03-08T01:45:13;14.43;;;8.80;;
60730;SDS011;46580;52.114;11.674;2024-03-08T01:47:38;21.60;;;10.83;;
60730;SDS011;46580;52.114;11.674;2024-03-08T01:50:04;18.47;;;8.57;;
60730;SDS011;46580;52.114;11.674;2024-03-08T01:52:31;16.97;;;9.07;;
60730;SDS011;46580;52.114;11.674;2024-03-08T01:55:02;13.03;;;8.27;;
60730;SDS011;46580;52.114;11.674;2024-03-08T01:57:32;18.07;;;8.10;;
60730;SDS011;46580;52.114;11.674;2024-03-08T02:00:00;17.33;;;8.63;;
60730;SDS011;46580;52.114;11.674;2024-03-08T02:02:28;20.63;;;8.27;;
60730;SDS011;46580;52.114;11.674;2024-03-08T02:04:56;15.27;;;8.33;;
60730;SDS011;46580;52.114;11.674;2024-03-08T02:07:22;19.90;;;9.03;;
60730;SDS011;46580;52.114;11.674;2024-03-08T02:09:47;16.47;;;8.67;;
60730;SDS011;46580;52.114;11.674;2024-03-08T02:12:13;15.60;;;8.00;;
60730;SDS011;46580;52.114;11.674;2024-03-08T02:14:40;19.17;;;8.90;;
60730;SDS011;46580;52.114;11.674;2024-03-08T02:17:05;13.10;;;7.43;;
60730;SDS011;46580;52.114;11.674;2024-03-08T02:19:30;17.60;;;8.33;;
60730;SDS011;46580;52.114;11.674;2024-03-08T02:21:57;21.70;;;9.03;;
60730;SDS011;46580;52.114;11.674;2024-03-08T02:24:23;20.90;;;9.97;;
60730;SDS011;46580;52.114;11.674;2024-03-08T02:26:49;15.20;;;8.93;;
60730;SDS011;46580;52.114;11.674;2024-03-08T02:29:14;19.57;;;9.07;;
60730;SDS011;46580;52.114;11.674;2024-03-08T02:31:39;18.10;;;8.47;;
60730;SDS011;46580;52.114;11.674;2024-03-08T02:34:05;19.87;;;9.07;;
60730;SDS011;46580;52.114;11.674;2024-03-08T02:36:30;18.37;;;8.60;;
60730;SDS011;46580;52.114;11.674;2024-03-08T02:38:59;15.03;;;8.67;;
60730;SDS011;46580;52.114;11.674;2024-03-08T02:41:26;16.07;;;8.43;;
60730;SDS011;46580;52.114;11.674;2024-03-08T02:43:52;18.60;;;9.33;;
60730;SDS011;46580;52.114;11.674;2024-03-08T02:46:17;15.77;;;8.50;;
60730;SDS011;46580;52.114;11.674;2024-03-08T02:48:43;18.33;;;8.93;;
60730;SDS011;46580;52.114;11.674;2024-03-08T02:51:08;20.17;;;9.37;;
60730;SDS011;46580;52.114;11.674;2024-03-08T02:53:35;19.53;;;9.60;;
60730;SDS011;46580;52.114;11.674;2024-03-08T02:56:01;18.00;;;9.10;;
60730;SDS011;46580;52.114;11.674;2024-03-08T02:58:26;15.57;;;9.07;;
60730;SDS011;46580;52.114;11.674;2024-03-08T03:00:52;16.57;;;8.43;;
60730;SDS011;46580;52.114;11.674;2024-03-08T03:03:17;18.63;;;9.57;;
60730;SDS011;46580;52.114;11.674;2024-03-08T03:05:43;13.73;;;8.10;;
60730;SDS011;46580;52.114;11.674;2024-03-08T03:08:09;19.87;;;9.70;;
60730;SDS011;46580;52.114;11.674;2024-03-08T03:10:36;17.50;;;8.17;;
60730;SDS011;46580;52.114;11.674;2024-03-08T03:13:01;18.83;;;9.67;;
60730;SDS011;46580;52.114;11.674;2024-03-08T03:15:27;16.37;;;8.73;;
60730;SDS011;46580;52.114;11.674;2024-03-08T03:17:52;18.90;;;8.93;;
60730;SDS011;46580;52.114;11.674;2024-03-08T03:20:18;17.70;;;8.40;;
60730;SDS011;46580;52.114;11.674;2024-03-08T03:22:57;21.37;;;9.50;;
60730;SDS011;46580;52.114;11.674;2024-03-08T03:25:26;18.80;;;9.00;;
60730;SDS011;46580;52.114;11.674;2024-03-08T03:27:54;15.67;;;8.13;;
60730;SDS011;46580;52.114;11.674;2024-03-08T03:30:25;15.47;;;7.83;;
60730;SDS011;46580;52.114;11.674;2024-03-08T03:32:52;15.87;;;8.20;;
60730;SDS011;46580;52.114;11.674;2024-03-08T03:35:19;15.37;;;9.13;;
60730;SDS011;46580;52.114;11.674;2024-03-08T03:37:45;16.83;;;8.33;;
60730;SDS011;46580;52.114;11.674;2024-03-08T03:40:32;17.50;;;8.10;;
60730;SDS011;46580;52.114;11.674;2024-03-08T03:42:58;18.23;;;8.77;;
60730;SDS011;46580;52.114;11.674;2024-03-08T03:45:24;15.13;;;8.23;;
60730;SDS011;46580;52.114;11.674;2024-03-08T03:47:49;15.10;;;6.70;;
60730;SDS011;46580;52.114;11.674;2024-03-08T03:50:15;15.67;;;6.83;;
60730;SDS011;46580;52.114;11.674;2024-03-08T03:52:40;22.77;;;8.77;;
60730;SDS011;46580;52.114;11.674;2024-03-08T03:55:07;14.07;;;7.77;;
60730;SDS011;46580;52.114;11.674;2024-03-08T03:57:33;17.63;;;8.80;;
60730;SDS011;46580;52.114;11.674;2024-03-08T04:00:00;16.63;;;7.37;;
60730;SDS011;46580;52.114;11.674;2024-03-08T04:02:27;13.73;;;7.40;;
60730;SDS011;46580;52.114;11.674;2024-03-08T04:04:53;13.17;;;7.60;;
60730;SDS011;46580;52.114;11.674;2024-03-08T04:07:19;17.37;;;8.23;;
60730;SDS011;46580;52.114;11.674;2024-03-08T04:09:45;14.90;;;7.97;;
60730;SDS011;46580;52.114;11.674;2024-03-08T04:12:11;17.90;;;8.00;;
60730;SDS011;46580;52.114;11.674;2024-03-08T04:14:38;16.63;;;8.20;;
60730;SDS011;46580;52.114;11.674;2024-03-08T04:17:06;16.77;;;7.97;;
60730;SDS011;46580;52.114;11.674;2024-03-08T04:19:33;17.33;;;9.27;;
60730;SDS011;46580;52.114;11.674;2024-03-08T04:21:59;18.50;;;8.63;;
60730;SDS011;46580;52.114;11.674;2024-03-08T04:24:26;17.70;;;8.07;;
60730;SDS011;46580;52.114;11.674;2024-03-08T04:26:51;16.33;;;8.00;;
60730;SDS011;46580;52.114;11.674;2024-03-08T04:29:18;14.77;;;8.90;;
60730;SDS011;46580;52.114;11.674;2024-03-08T04:31:43;18.60;;;8.33;;
60730;SDS011;46580;52.114;11.674;2024-03-08T04:34:09;16.27;;;7.83;;
60730;SDS011;46580;52.114;11.674;2024-03-08T04:36:35;20.13;;;9.47;;
60730;SDS011;46580;52.114;11.674;2024-03-08T04:39:00;20.67;;;9.63;;
60730;SDS011;46580;52.114;11.674;2024-03-08T04:41:26;16.90;;;7.87;;
60730;SDS011;46580;52.114;11.674;2024-03-08T04:43:51;18.67;;;8.13;;
60730;SDS011;46580;52.114;11.674;2024-03-08T04:46:17;18.87;;;8.27;;
60730;SDS011;46580;52.114;11.674;2024-03-08T04:48:43;19.03;;;8.57;;
60730;SDS011;46580;52.114;11.674;2024-03-08T04:51:08;22.97;;;9.23;;
60730;SDS011;46580;52.114;11.674;2024-03-08T04:53:34;18.83;;;8.57;;
60730;SDS011;46580;52.114;11.674;2024-03-08T04:56:00;21.27;;;10.23;;
60730;SDS011;46580;52.114;11.674;2024-03-08T04:58:25;18.47;;;8.83;;
60730;SDS011;46580;52.114;11.674;2024-03-08T05:00:50;17.53;;;8.50;;
60730;SDS011;46580;52.114;11.674;2024-03-08T05:03:16;21.20;;;10.33;;
60730;SDS011;46580;52.114;11.674;2024-03-08T05:05:42;18.53;;;9.03;;
60730;SDS011;46580;52.114;11.674;2024-03-08T05:08:07;22.00;;;10.47;;
60730;SDS011;46580;52.114;11.674;2024-03-08T05:10:32;15.93;;;8.93;;
60730;SDS011;46580;52.114;11.674;2024-03-08T05:12:58;18.23;;;9.57;;
60730;SDS011;46580;52.114;11.674;2024-03-08T05:15:23;24.33;;;10.40;;
60730;SDS011;46580;52.114;11.674;2024-03-08T05:17:49;19.50;;;10.20;;
60730;SDS011;46580;52.114;11.674;2024-03-08T05:20:14;19.13;;;9.80;;
60730;SDS011;46580;52.114;11.674;2024-03-08T05:22:42;18.37;;;9.97;;
60730;SDS011;46580;52.114;11.674;2024-03-08T05:25:07;20.20;;;10.87;;
60730;SDS011;46580;52.114;11.674;2024-03-08T05:27:34;23.33;;;10.63;;
60730;SDS011;46580;52.114;11.674;2024-03-08T05:30:01;22.67;;;10.13;;
60730;SDS011;46580;52.114;11.674;2024-03-08T05:32:28;20.40;;;9.47;;
60730;SDS011;46580;52.114;11.674;2024-03-08T05:34:54;20.30;;;10.33;;
60730;SDS011;46580;52.114;11.674;2024-03-08T05:37:19;25.10;;;9.83;;
60730;SDS011;46580;52.114;11.674;2024-03-08T05:39:46;18.83;;;9.63;;
60730;SDS011;46580;52.114;11.674;2024-03-08T05:42:11;20.67;;;10.60;;
60730;SDS011;46580;52.114;11.674;2024-03-08T05:44:36;20.70;;;9.97;;
60730;SDS011;46580;52.114;11.674;2024-03-08T05:47:02;21.63;;;10.70;;
60730;SDS011;46580;52.114;11.674;2024-03-08T05:49:27;20.60;;;10.53;;
60730;SDS011;46580;52.114;11.674;2024-03-08T05:51:53;16.57;;;9.50;;
60730;SDS011;46580;52.114;11.674;2024-03-08T05:54:19;27.17;;;10.90;;
60730;SDS011;46580;52.114;11.674;2024-03-08T05:56:47;21.77;;;10.63;;
60730;SDS011;46580;52.114;11.674;2024-03-08T05:59:12;24.60;;;11.03;;
60730;SDS011;46580;52.114;11.674;2024-03-08T06:01:38;20.97;;;10.53;;
60730;SDS011;46580;52.114;11.674;2024-03-08T06:04:05;22.90;;;11.07;;
60730;SDS011;46580;52.114;11.674;2024-03-08T06:06:31;20.47;;;11.50;;
60730;SDS011;46580;52.114;11.674;2024-03-08T06:08:56;20.67;;;10.50;;
60730;SDS011;46580;52.114;11.674;2024-03-08T06:11:23;23.70;;;10.97;;
60730;SDS011;46580;52.114;11.674;2024-03-08T06:13:51;22.00;;;10.70;;
60730;SDS011;46580;52.114;11.674;2024-03-08T06:16:20;20.77;;;11.33;;
60730;SDS011;46580;52.114;11.674;2024-03-08T06:18:46;23.23;;;11.33;;
60730;SDS011;46580;52.114;11.674;2024-03-08T06:21:12;21.97;;;12.40;;
60730;SDS011;46580;52.114;11.674;2024-03-08T06:23:40;20.37;;;11.07;;
60730;SDS011;46580;52.114;11.674;2024-03-08T06:26:10;23.40;;;11.57;;
60730;SDS011;46580;52.114;11.674;2024-03-08T06:28:37;25.33;;;11.80;;
60730;SDS011;46580;52.114;11.674;2024-03-08T06:31:04;21.57;;;11.83;;
60730;SDS011;46580;52.114;11.674;2024-03-08T06:33:32;25.07;;;12.37;;
60730;SDS011;46580;52.114;11.674;2024-03-08T06:35:57;22.17;;;11.73;;
60730;SDS011;46580;52.114;11.674;2024-03-08T06:38:24;22.90;;;12.43;;
60730;SDS011;46580;52.114;11.674;2024-03-08T06:40:50;29.47;;;13.47;;
60730;SDS011;46580;52.114;11.674;2024-03-08T06:43:16;22.67;;;12.40;;
60730;SDS011;46580;52.114;11.674;2024-03-08T06:45:42;22.27;;;12.00;;
60730;SDS011;46580;52.114;11.674;2024-03-08T06:48:13;22.13;;;10.67;;
60730;SDS011;46580;52.114;11.674;2024-03-08T06:50:45;22.27;;;12.57;;
60730;SDS011;46580;52.114;11.674;2024-03-08T06:53:13;24.97;;;12.63;;
60730;SDS011;46580;52.114;11.674;2024-03-08T06:55:39;27.23;;;13.20;;
60730;SDS011;46580;52.114;11.674;2024-03-08T06:58:05;19.27;;;11.23;;
60730;SDS011;46580;52.114;11.674;2024-03-08T07:00:31;22.17;;;11.27;;
60730;SDS011;46580;52.114;11.674;2024-03-08T07:02:58;20.13;;;10.60;;
60730;SDS011;46580;52.114;11.674;2024-03-08T07:05:27;26.03;;;13.10;;
60730;SDS011;46580;52.114;11.674;2024-03-08T07:07:53;26.10;;;12.73;;
60730;SDS011;46580;52.114;11.674;2024-03-08T07:10:20;26.80;;;13.10;;
60730;SDS011;46580;52.114;11.674;2024-03-08T07:12:48;22.53;;;12.07;;
60730;SDS011;46580;52.114;11.674;2024-03-08T07:15:14;28.63;;;12.90;;
60730;SDS011;46580;52.114;11.674;2024-03-08T07:17:40;21.10;;;11.10;;
60730;SDS011;46580;52.114;11.674;2024-03-08T07:20:06;25.73;;;12.63;;
60730;SDS011;46580;52.114;11.674;2024-03-08T07:22:38;22.40;;;12.03;;
60730;SDS011;46580;52.114;11.674;2024-03-08T07:25:07;19.47;;;11.07;;
60730;SDS011;46580;52.114;11.674;2024-03-08T07:27:33;22.80;;;11.80;;
60730;SDS011;46580;52.114;11.674;2024-03-08T07:29:59;24.33;;;12.67;;
60730;SDS011;46580;52.114;11.674;2024-03-08T07:32:26;29.60;;;12.80;;
60730;SDS011;46580;52.114;11.674;2024-03-08T07:34:53;20.43;;;10.80;;
60730;SDS011;46580;52.114;11.674;2024-03-08T07:37:20;26.10;;;12.63;;
60730;SDS011;46580;52.114;11.674;2024-03-08T07:39:46;28.93;;;14.47;;
60730;SDS011;46580;52.114;11.674;2024-03-08T07:42:12;24.53;;;11.73;;
60730;SDS011;46580;52.114;11.674;2024-03-08T07:44:38;26.97;;;13.10;;
60730;SDS011;46580;52.114;11.674;2024-03-08T07:47:03;25.80;;;13.20;;
60730;SDS011;46580;52.114;11.674;2024-03-08T07:49:29;28.83;;;13.33;;
60730;SDS011;46580;52.114;11.674;2024-03-08T07:51:55;29.43;;;13.37;;
60730;SDS011;46580;52.114;11.674;2024-03-08T07:54:23;23.37;;;12.67;;
60730;SDS011;46580;52.114;11.674;2024-03-08T07:56:48;26.47;;;12.17;;
60730;SDS011;46580;52.114;11.674;2024-03-08T07:59:15;27.57;;;12.93;;
60730;SDS011;46580;52.114;11.674;2024-03-08T08:01:41;31.63;;;13.93;;
60730;SDS011;46580;52.114;11.674;2024-03-08T08:04:07;29.63;;;14.10;;
60730;SDS011;46580;52.114;11.674;2024-03-08T08:06:37;25.73;;;13.27;;
60730;SDS011;46580;52.114;11.674;2024-03-08T08:09:04;23.10;;;12.03;;
60730;SDS011;46580;52.114;11.674;2024-03-08T08:11:30;24.50;;;14.53;;
60730;SDS011;46580;52.114;11.674;2024-03-08T08:13:56;26.57;;;13.80;;
60730;SDS011;46580;52.114;11.674;2024-03-08T08:16:24;24.17;;;13.47;;
60730;SDS011;46580;52.114;11.674;2024-03-08T08:18:50;27.80;;;13.43;;
60730;SDS011;46580;52.114;11.674;2024-03-08T08:21:17;25.63;;;13.77;;
60730;SDS011;46580;52.114;11.674;2024-03-08T08:23:43;29.17;;;13.90;;
60730;SDS011;46580;52.114;11.674;2024-03-08T08:26:10;26.93;;;13.87;;
60730;SDS011;46580;52.114;11.674;2024-03-08T08:28:36;26.87;;;16.37;;
60730;SDS011;46580;52.114;11.674;2024-03-08T08:31:03;26.00;;;14.87;;
60730;SDS011;46580;52.114;11.674;2024-03-08T08:33:29;25.70;;;15.47;;
60730;SDS011;46580;52.114;11.674;2024-03-08T08:35:54;32.17;;;15.80;;
60730;SDS011;46580;52.114;11.674;2024-03-08T08:38:21;37.27;;;17.13;;
60730;SDS011;46580;52.114;11.674;2024-03-08T08:40:46;29.33;;;15.73;;
60730;SDS011;46580;52.114;11.674;2024-03-08T08:43:12;20.83;;;12.20;;
60730;SDS011;46580;52.114;11.674;2024-03-08T08:45:39;30.47;;;16.37;;
60730;SDS011;46580;52.114;11.674;2024-03-08T08:48:05;32.90;;;17.23;;
60730;SDS011;46580;52.114;11.674;2024-03-08T08:50:31;32.93;;;16.20;;
60730;SDS011;46580;52.114;11.674;2024-03-08T08:52:57;24.57;;;13.37;;
60730;SDS011;46580;52.114;11.674;2024-03-08T08:55:23;31.97;;;15.23;;
60730;SDS011;46580;52.114;11.674;2024-03-08T08:57:52;26.70;;;14.93;;
60730;SDS011;46580;52.114;11.674;2024-03-08T09:00:20;29.17;;;15.73;;
60730;SDS011;46580;52.114;11.674;2024-03-08T09:02:46;27.97;;;15.03;;
60730;SDS011;46580;52.114;11.674;2024-03-08T09:05:13;26.17;;;14.30;;
60730;SDS011;46580;52.114;11.674;2024-03-08T09:07:42;29.23;;;14.43;;
60730;SDS011;46580;52.114;11.674;2024-03-08T09:10:10;24.43;;;13.63;;
60730;SDS011;46580;52.114;11.674;2024-03-08T09:12:37;29.90;;;15.23;;
60730;SDS011;46580;52.114;11.674;2024-03-08T09:15:04;29.47;;;15.40;;
60730;SDS011;46580;52.114;11.674;2024-03-08T09:17:30;21.67;;;10.53;;
60730;SDS011;46580;52.114;11.674;2024-03-08T09:19:58;25.07;;;14.10;;
60730;SDS011;46580;52.114;11.674;2024-03-08T09:22:24;20.53;;;12.47;;
60730;SDS011;46580;52.114;11.674;2024-03-08T09:24:50;22.40;;;13.13;;
60730;SDS011;46580;52.114;11.674;2024-03-08T09:27:15;28.20;;;14.03;;
60730;SDS011;46580;52.114;11.674;2024-03-08T09:29:41;22.83;;;13.20;;
60730;SDS011;46580;52.114;11.674;2024-03-08T09:32:06;25.90;;;12.93;;
60730;SDS011;46580;52.114;11.674;2024-03-08T09:34:32;25.73;;;14.07;;
60730;SDS011;46580;52.114;11.674;2024-03-08T09:36:58;18.60;;;9.30;;
60730;SDS011;46580;52.114;11.674;2024-03-08T09:39:23;24.33;;;13.90;;
60730;SDS011;46580;52.114;11.674;2024-03-08T09:41:48;23.13;;;11.43;;
60730;SDS011;46580;52.114;11.674;2024-03-08T09:44:14;27.73;;;13.83;;
60730;SDS011;46580;52.114;11.674;2024-03-08T09:46:40;24.90;;;13.00;;
60730;SDS011;46580;52.114;11.674;2024-03-08T09:49:06;26.53;;;13.80;;
60730;SDS011;46580;52.114;11.674;2024-03-08T09:51:33;26.40;;;13.07;;
60730;SDS011;46580;52.114;11.674;2024-03-08T09:54:03;19.37;;;10.87;;
60730;SDS011;46580;52.114;11.674;2024-03-08T09:56:29;25.67;;;12.73;;
60730;SDS011;46580;52.114;11.674;2024-03-08T09:58:59;21.53;;;12.10;;
60730;SDS011;46580;52.114;11.674;2024-03-08T10:01:53;21.80;;;12.07;;
60730;SDS011;46580;52.114;11.674;2024-03-08T10:04:21;24.23;;;11.87;;
60730;SDS011;46580;52.114;11.674;2024-03-08T10:06:47;23.03;;;11.90;;
60730;SDS011;46580;52.114;11.674;2024-03-08T10:09:13;19.40;;;10.93;;
60730;SDS011;46580;52.114;11.674;2024-03-08T10:11:41;18.87;;;10.53;;
60730;SDS011;46580;52.114;11.674;2024-03-08T10:14:07;22.87;;;11.13;;
60730;SDS011;46580;52.114;11.674;2024-03-08T10:16:34;18.57;;;10.03;;
60730;SDS011;46580;52.114;11.674;2024-03-08T10:19:00;25.20;;;12.17;;
60730;SDS011;46580;52.114;11.674;2024-03-08T10:21:26;24.73;;;12.47;;
60730;SDS011;46580;52.114;11.674;2024-03-08T10:23:52;19.37;;;12.43;;
60730;SDS011;46580;52.114;11.674;2024-03-08T10:26:18;20.07;;;8.97;;
60730;SDS011;46580;52.114;11.674;2024-03-08T10:28:50;19.67;;;10.80;;
60730;SDS011;46580;52.114;11.674;2024-03-08T10:31:17;22.87;;;12.10;;
60730;SDS011;46580;52.114;11.674;2024-03-08T10:33:44;18.43;;;10.43;;
60730;SDS011;46580;52.114;11.674;2024-03-08T10:36:10;23.17;;;12.13;;
60730;SDS011;46580;52.114;11.674;2024-03-08T10:38:38;20.10;;;10.20;;
60730;SDS011;46580;52.114;11.674;2024-03-08T10:41:08;21.40;;;11.67;;
60730;SDS011;46580;52.114;11.674;2024-03-08T10:49:38;25.97;;;12.33;;
60730;SDS011;46580;52.114;11.674;2024-03-08T10:52:07;18.73;;;8.97;;
60730;SDS011;46580;52.114;11.674;2024-03-08T10:54:34;22.60;;;11.47;;
60730;SDS011;46580;52.114;11.674;2024-03-08T10:57:05;20.00;;;10.70;;
60730;SDS011;46580;52.114;11.674;2024-03-08T10:59:31;18.93;;;10.90;;
60730;SDS011;46580;52.114;11.674;2024-03-08T11:01:58;20.17;;;11.13;;
60730;SDS011;46580;52.114;11.674;2024-03-08T11:04:25;16.27;;;9.90;;
60730;SDS011;46580;52.114;11.674;2024-03-08T11:06:50;20.77;;;11.73;;
60730;SDS011;46580;52.114;11.674;2024-03-08T11:09:33;13.37;;;6.90;;
60730;SDS011;46580;52.114;11.674;2024-03-08T11:12:20;15.67;;;9.70;;
60730;SDS011;46580;52.114;11.674;2024-03-08T11:14:48;15.03;;;9.33;;
60730;SDS011;46580;52.114;11.674;2024-03-08T11:19:55;18.50;;;8.93;;
60730;SDS011;46580;52.114;11.674;2024-03-08T11:22:23;16.83;;;9.17;;
60730;SDS011;46580;52.114;11.674;2024-03-08T11:24:52;15.00;;;8.83;;
60730;SDS011;46580;52.114;11.674;2024-03-08T11:27:18;10.83;;;6.90;;
60730;SDS011;46580;52.114;11.674;2024-03-08T11:29:46;18.07;;;9.03;;
60730;SDS011;46580;52.114;11.674;2024-03-08T11:32:27;15.67;;;8.77;;
60730;SDS011;46580;52.114;11.674;2024-03-08T11:34:54;15.80;;;9.33;;
60730;SDS011;46580;52.114;11.674;2024-03-08T11:37:20;13.60;;;7.70;;
60730;SDS011;46580;52.114;11.674;2024-03-08T11:39:47;13.17;;;7.60;;
60730;SDS011;46580;52.114;11.674;2024-03-08T11:42:14;15.50;;;9.40;;
60730;SDS011;46580;52.114;11.674;2024-03-08T11:44:42;17.67;;;9.17;;
60730;SDS011;46580;52.114;11.674;2024-03-08T11:47:10;16.63;;;9.10;;
60730;SDS011;46580;52.114;11.674;2024-03-08T11:49:37;14.30;;;8.10;;
60730;SDS011;46580;52.114;11.674;2024-03-08T11:52:04;14.13;;;7.57;;
60730;SDS011;46580;52.114;11.674;2024-03-08T11:54:29;13.67;;;8.70;;
60730;SDS011;46580;52.114;11.674;2024-03-08T11:56:55;14.50;;;8.87;;
60730;SDS011;46580;52.114;11.674;2024-03-08T11:59:25;14.70;;;7.23;;
60730;SDS011;46580;52.114;11.674;2024-03-08T12:02:05;13.33;;;7.13;;
60730;SDS011;46580;52.114;11.674;2024-03-08T12:04:31;15.70;;;8.33;;
60730;SDS011;46580;52.114;11.674;2024-03-08T12:07:00;13.73;;;8.07;;
60730;SDS011;46580;52.114;11.674;2024-03-08T12:09:30;12.83;;;7.07;;
60730;SDS011;46580;52.114;11.674;2024-03-08T12:11:58;14.53;;;8.43;;
60730;SDS011;46580;52.114;11.674;2024-03-08T12:14:24;14.23;;;8.27;;
60730;SDS011;46580;52.114;11.674;2024-03-08T12:16:50;15.43;;;8.13;;
60730;SDS011;46580;52.114;11.674;2024-03-08T12:19:17;17.77;;;9.63;;
60730;SDS011;46580;52.114;11.674;2024-03-08T12:21:43;11.00;;;5.93;;
60730;SDS011;46580;52.114;11.674;2024-03-08T12:24:14;12.93;;;7.73;;
60730;SDS011;46580;52.114;11.674;2024-03-08T12:26:44;17.10;;;8.53;;
60730;SDS011;46580;52.114;11.674;2024-03-08T12:29:14;14.40;;;7.80;;
60730;SDS011;46580;52.114;11.674;2024-03-08T12:31:45;13.53;;;7.20;;
60730;SDS011;46580;52.114;11.674;2024-03-08T12:34:12;14.83;;;8.77;;
60730;SDS011;46580;52.114;11.674;2024-03-08T12:36:44;15.57;;;7.93;;
60730;SDS011;46580;52.114;11.674;2024-03-08T12:39:16;14.47;;;8.20;;
60730;SDS011;46580;52.114;11.674;2024-03-08T12:41:43;14.87;;;8.20;;
60730;SDS011;46580;52.114;11.674;2024-03-08T12:44:09;16.07;;;9.23;;
60730;SDS011;46580;52.114;11.674;2024-03-08T12:46:36;14.73;;;8.47;;
60730;SDS011;46580;52.114;11.674;2024-03-08T12:49:08;16.50;;;8.47;;
60730;SDS011;46580;52.114;11.674;2024-03-08T12:51:37;13.33;;;8.50;;
60730;SDS011;46580;52.114;11.674;2024-03-08T12:54:04;15.33;;;8.23;;
60730;SDS011;46580;52.114;11.674;2024-03-08T12:56:33;16.17;;;9.03;;
60730;SDS011;46580;52.114;11.674;2024-03-08T12:59:02;7.13;;;4.93;;
60730;SDS011;46580;52.114;11.674;2024-03-08T13:01:29;14.70;;;8.00;;
60730;SDS011;46580;52.114;11.674;2024-03-08T13:03:57;19.40;;;8.63;;
60730;SDS011;46580;52.114;11.674;2024-03-08T13:06:23;15.07;;;8.93;;
60730;SDS011;46580;52.114;11.674;2024-03-08T13:08:50;14.90;;;8.70;;
60730;SDS011;46580;52.114;11.674;2024-03-08T13:11:17;18.13;;;9.83;;
60730;SDS011;46580;52.114;11.674;2024-03-08T13:13:42;16.30;;;8.90;;
60730;SDS011;46580;52.114;11.674;2024-03-08T13:16:09;16.80;;;9.23;;
60730;SDS011;46580;52.114;11.674;2024-03-08T13:18:36;16.20;;;9.80;;
60730;SDS011;46580;52.114;11.674;2024-03-08T13:21:02;17.47;;;9.20;;
60730;SDS011;46580;52.114;11.674;2024-03-08T13:23:32;17.47;;;8.17;;
60730;SDS011;46580;52.114;11.674;2024-03-08T13:26:04;16.40;;;10.20;;
60730;SDS011;46580;52.114;11.674;2024-03-08T13:28:30;17.83;;;9.80;;
60730;SDS011;46580;52.114;11.674;2024-03-08T13:31:01;17.10;;;10.20;;
60730;SDS011;46580;52.114;11.674;2024-03-08T13:33:28;19.63;;;9.67;;
60730;SDS011;46580;52.114;11.674;2024-03-08T13:35:53;16.90;;;9.80;;
60730;SDS011;46580;52.114;11.674;2024-03-08T13:38:19;16.90;;;10.37;;
60730;SDS011;46580;52.114;11.674;2024-03-08T13:40:46;18.10;;;10.00;;
60730;SDS011;46580;52.114;11.674;2024-03-08T13:43:14;16.20;;;9.90;;
60730;SDS011;46580;52.114;11.674;2024-03-08T13:45:40;16.73;;;8.90;;
60730;SDS011;46580;52.114;11.674;2024-03-08T13:48:06;15.77;;;9.17;;
60730;SDS011;46580;52.114;11.674;2024-03-08T13:50:31;16.50;;;9.03;;
60730;SDS011;46580;52.114;11.674;2024-03-08T13:52:57;13.83;;;8.27;;
60730;SDS011;46580;52.114;11.674;2024-03-08T13:55:23;15.63;;;9.07;;
60730;SDS011;46580;52.114;11.674;2024-03-08T13:57:50;17.37;;;10.53;;
60730;SDS011;46580;52.114;11.674;2024-03-08T14:00:18;15.30;;;9.13;;
60730;SDS011;46580;52.114;11.674;2024-03-08T14:02:47;16.60;;;10.00;;
60730;SDS011;46580;52.114;11.674;2024-03-08T14:05:14;17.63;;;8.20;;
60730;SDS011;46580;52.114;11.674;2024-03-08T14:07:41;18.43;;;8.80;;
60730;SDS011;46580;52.114;11.674;2024-03-08T14:10:07;16.37;;;8.67;;
60730;SDS011;46580;52.114;11.674;2024-03-08T14:12:34;11.50;;;7.13;;
60730;SDS011;46580;52.114;11.674;2024-03-08T14:15:01;13.97;;;7.80;;
60730;SDS011;46580;52.114;11.674;2024-03-08T14:17:26;16.33;;;8.27;;
60730;SDS011;46580;52.114;11.674;2024-03-08T14:19:53;15.03;;;7.60;;
60730;SDS011;46580;52.114;11.674;2024-03-08T14:22:19;14.87;;;7.43;;